Time;durP1;ratioP1;P1;durP2;ratioP2;P2;SDS_P1;SDS_P2;PMS_P1;PMS_P2;Temp;Humidity;BMP_temperature;BMP_pressure;BME280_temperature;BME280_humidity;BME280_pressure;Samples;Min_cycle;Max_cycle;Signal;HPM_P1;HPM_P2
2023/10/19 00:01:58;;;;;;;12.27;10.60;;;;;;;14.99;70.98;95861.91;5030570;28;20441;-67
2023/10/19 00:04:26;;;;;;;12.17;10.70;;;;;;;14.87;71.63;95857.28;5029164;28;20517;-68
2023/10/19 00:06:53;;;;;;;12.73;10.80;;;;;;;14.95;71.38;95861.50;5028531;28;20422;-68
2023/10/19 00:09:20;;;;;;;12.57;9.63;;;;;;;14.94;71.74;95859.91;5028509;28;20489;-68
2023/10/19 00:11:46;;;;;;;11.97;9.63;;;;;;;14.95;72.14;95860.72;5030309;28;20505;-69
2023/10/19 00:14:18;;;;;;;11.10;9.37;;;;;;;15.02;71.80;95856.19;5029101;28;20976;-68
2023/10/19 00:16:50;;;;;;;12.13;9.17;;;;;;;15.05;71.93;95861.06;5028201;28;20426;-68
2023/10/19 00:19:19;;;;;;;13.00;8.87;;;;;;;15.08;72.01;95855.34;5034453;28;20450;-68
2023/10/19 00:21:51;;;;;;;8.87;7.97;;;;;;;15.18;71.65;95860.16;5032152;28;20423;-69
2023/10/19 00:24:19;;;;;;;8.37;7.20;;;;;;;15.20;71.82;95858.91;5030748;28;20429;-68
2023/10/19 00:26:44;;;;;;;9.63;7.37;;;;;;;15.25;71.77;95863.56;5030740;28;20430;-68
2023/10/19 00:31:56;;;;;;;6.50;5.90;;;;;;;15.35;72.26;95865.72;5030046;28;20179;-68
2023/10/19 00:34:21;;;;;;;6.90;5.90;;;;;;;15.40;72.18;95855.31;5028046;28;21090;-68
2023/10/19 00:36:48;;;;;;;7.07;5.63;;;;;;;15.46;71.97;95857.09;5033869;28;20435;-69
2023/10/19 00:39:20;;;;;;;9.33;6.07;;;;;;;15.50;72.01;95849.53;5028342;28;20210;-68
2023/10/19 00:41:47;;;;;;;8.87;5.47;;;;;;;15.52;71.86;95856.22;5037217;28;20461;-69
2023/10/19 00:44:15;;;;;;;7.00;5.20;;;;;;;15.57;71.96;95846.84;5032486;28;20485;-68
2023/10/19 00:49:06;;;;;;;6.30;5.03;;;;;;;15.62;72.18;95836.47;5040902;28;20458;-68
2023/10/19 00:54:14;;;;;;;8.83;5.50;;;;;;;15.69;72.03;95828.47;5031483;28;20549;-69
2023/10/19 00:56:51;;;;;;;6.27;5.67;;;;;;;15.68;72.44;95830.28;5021282;28;20918;-68
2023/10/19 00:59:23;;;;;;;6.20;5.50;;;;;;;15.70;72.49;95825.59;5024116;28;20446;-67
2023/10/19 01:01:54;;;;;;;9.03;5.50;;;;;;;15.71;72.28;95816.66;5029299;28;20489;-67
2023/10/19 01:04:30;;;;;;;7.70;5.70;;;;;;;15.73;72.49;95814.59;5028299;28;20933;-67
2023/10/19 01:07:00;;;;;;;8.90;6.20;;;;;;;15.75;72.41;95817.81;5033967;28;20415;-68
2023/10/19 01:09:34;;;;;;;9.50;5.43;;;;;;;15.76;72.50;95816.78;5023859;28;20542;-68
2023/10/19 01:12:25;;;;;;;8.70;5.30;;;;;;;15.75;72.92;95807.25;5030397;28;20442;-68
2023/10/19 01:15:12;;;;;;;10.93;5.47;;;;;;;15.75;73.26;95801.97;5033156;28;20441;-67
2023/10/19 01:17:38;;;;;;;8.50;6.00;;;;;;;15.76;73.27;95793.03;5024091;28;20422;-67
2023/10/19 01:20:55;;;;;;;6.27;5.67;;;;;;;15.78;73.22;95782.25;5031055;28;20426;-67
2023/10/19 01:31:15;;;;;;;6.80;6.00;;;;;;;15.88;73.58;95773.84;5028327;28;20453;-68
2023/10/19 01:33:41;;;;;;;13.00;6.33;;;;;;;15.81;74.11;95769.41;5029460;28;20546;-68
2023/10/19 01:36:11;;;;;;;6.40;5.80;;;;;;;15.90;73.73;95763.84;5029732;28;20422;-68
2023/10/19 01:38:37;;;;;;;13.33;6.57;;;;;;;15.88;74.32;95758.78;5029949;28;20437;-68
2023/10/19 01:41:19;;;;;;;8.00;5.67;;;;;;;15.98;73.82;95766.22;5031138;28;20488;-68
2023/10/19 01:43:46;;;;;;;7.93;5.40;;;;;;;16.01;73.89;95757.81;5033031;28;20422;-68
2023/10/19 01:46:13;;;;;;;6.03;5.23;;;;;;;16.04;74.23;95752.09;5031588;28;20418;-69
2023/10/19 01:48:43;;;;;;;11.73;5.50;;;;;;;16.08;74.04;95750.63;5031322;28;20461;-68
2023/10/19 01:51:10;;;;;;;8.40;5.83;;;;;;;16.10;74.24;95745.13;5031211;28;20410;-68
2023/10/19 01:53:39;;;;;;;6.87;5.53;;;;;;;16.12;74.03;95740.41;5031635;28;20422;-68
2023/10/19 01:56:09;;;;;;;6.20;5.07;;;;;;;16.17;74.12;95745.03;5033096;28;20886;-69
2023/10/19 01:58:36;;;;;;;8.50;4.83;;;;;;;16.18;74.12;95746.66;5026003;28;20442;-68
2023/10/19 02:01:08;;;;;;;8.23;5.13;;;;;;;16.19;74.25;95748.25;5029527;28;21019;-68
2023/10/19 02:03:35;;;;;;;7.33;5.30;;;;;;;16.22;74.19;95739.91;5040228;28;20995;-67
2023/10/19 02:06:10;;;;;;;7.73;4.47;;;;;;;16.23;74.22;95738.88;5032497;28;20810;-68
2023/10/19 02:08:38;;;;;;;8.97;5.70;;;;;;;16.26;74.24;95738.41;5032903;28;20430;-68
2023/10/19 02:11:09;;;;;;;6.03;5.40;;;;;;;16.27;74.20;95735.53;5041217;28;20489;-68
2023/10/19 02:13:35;;;;;;;8.00;5.37;;;;;;;16.28;74.14;95726.59;5034078;28;20423;-68
2023/10/19 02:16:01;;;;;;;7.93;4.67;;;;;;;16.31;74.28;95730.63;5030866;28;20651;-68
2023/10/19 02:18:26;;;;;;;7.40;4.83;;;;;;;16.32;74.14;95729.59;5022460;28;20428;-67
2023/10/19 02:20:52;;;;;;;7.90;4.60;;;;;;;16.33;74.08;95725.91;5030807;28;20247;-69
2023/10/19 02:23:17;;;;;;;8.33;5.23;;;;;;;16.33;74.07;95725.91;5023413;28;20186;-69
2023/10/19 02:25:43;;;;;;;6.13;4.47;;;;;;;16.36;74.25;95717.53;5038345;28;20567;-70
2023/10/19 02:28:09;;;;;;;9.57;5.90;;;;;;;16.37;74.30;95713.88;5033190;28;20202;-69
2023/10/19 02:30:34;;;;;;;8.53;4.20;;;;;;;16.38;74.15;95714.66;5042160;28;20225;-68
2023/10/19 02:33:01;;;;;;;7.87;4.80;;;;;;;16.36;74.17;95706.97;5031223;28;20221;-68
2023/10/19 02:35:27;;;;;;;7.03;4.60;;;;;;;16.37;74.19;95719.16;5029288;28;20203;-68
2023/10/19 02:37:54;;;;;;;5.03;4.00;;;;;;;16.35;74.09;95705.34;5034860;28;20419;-68
2023/10/19 02:40:19;;;;;;;6.10;4.43;;;;;;;16.37;74.17;95711.22;5030503;28;20485;-69
2023/10/19 02:42:47;;;;;;;6.83;4.70;;;;;;;16.39;74.00;95713.63;5032296;28;20861;-69
2023/10/19 02:45:17;;;;;;;4.73;4.20;;;;;;;16.39;74.09;95709.13;5032684;28;20192;-68
2023/10/19 02:47:44;;;;;;;9.47;4.80;;;;;;;16.37;74.07;95703.28;5029501;28;20431;-68
2023/10/19 02:50:13;;;;;;;9.83;4.53;;;;;;;16.37;74.03;95707.75;5038900;28;21224;-68
2023/10/19 02:52:40;;;;;;;6.03;4.37;;;;;;;16.39;73.88;95709.13;5029710;28;20842;-68
2023/10/19 02:55:07;;;;;;;5.20;3.90;;;;;;;16.39;73.89;95700.41;5040071;28;20425;-68
2023/10/19 02:57:32;;;;;;;4.80;4.00;;;;;;;16.39;73.64;95709.13;5030686;28;20426;-68
2023/10/19 02:59:59;;;;;;;8.60;4.70;;;;;;;16.38;73.85;95699.59;5030235;28;20526;-68
2023/10/19 03:02:26;;;;;;;4.30;3.90;;;;;;;16.37;73.62;95700.66;5034333;28;20192;-69
2023/10/19 03:04:53;;;;;;;8.33;5.30;;;;;;;16.36;73.44;95701.69;5032943;28;20453;-68
2023/10/19 03:07:19;;;;;;;5.33;3.80;;;;;;;16.35;73.35;95700.06;5029656;28;20477;-70
2023/10/19 03:09:53;;;;;;;5.23;3.93;;;;;;;16.35;73.36;95693.94;5030061;28;20545;-70
2023/10/19 03:12:19;;;;;;;5.77;4.10;;;;;;;16.33;73.25;95690.72;5039402;28;20189;-68
2023/10/19 03:14:48;;;;;;;7.07;5.00;;;;;;;16.34;73.24;95687.88;5026190;28;21068;-69
2023/10/19 03:17:14;;;;;;;4.50;4.10;;;;;;;16.33;73.25;95685.44;5037303;28;20429;-69
2023/10/19 03:19:39;;;;;;;7.13;4.30;;;;;;;16.31;72.94;95677.75;5020357;28;20454;-70
2023/10/19 03:22:09;;;;;;;8.30;4.90;;;;;;;16.29;72.95;95669.22;5025851;28;20930;-68
2023/10/19 03:24:43;;;;;;;6.10;4.70;;;;;;;16.27;72.83;95673.94;5032101;28;20244;-69
2023/10/19 03:27:22;;;;;;;6.17;4.40;;;;;;;16.27;72.96;95672.13;5028562;28;20433;-68
2023/10/19 03:29:53;;;;;;;10.43;4.40;;;;;;;16.26;72.80;95672.31;5036882;28;20505;-69
2023/10/19 03:32:22;;;;;;;7.13;4.57;;;;;;;16.26;72.77;95670.50;5028815;28;20492;-67
2023/10/19 03:34:49;;;;;;;4.43;3.47;;;;;;;16.26;72.71;95672.31;5027895;28;20792;-66
2023/10/19 03:37:15;;;;;;;5.53;4.40;;;;;;;16.24;72.66;95671.75;5029474;28;20474;-67
2023/10/19 03:39:41;;;;;;;10.50;4.80;;;;;;;16.24;72.60;95671.75;5029175;28;20959;-68
2023/10/19 03:42:07;;;;;;;7.90;4.60;;;;;;;16.24;72.47;95666.47;5034473;28;20384;-67
2023/10/19 03:47:14;;;;;;;6.10;4.63;;;;;;;16.21;72.38;95672.22;5037412;28;20189;-69
2023/10/19 03:49:40;;;;;;;6.77;3.93;;;;;;;16.19;72.37;95661.84;5034031;28;20992;-68
2023/10/19 03:54:41;;;;;;;5.33;4.07;;;;;;;16.18;72.40;95652.34;5029301;28;20422;-68
2023/10/19 03:57:25;;;;;;;9.90;4.57;;;;;;;16.19;72.30;95653.13;5041475;28;20919;-67
2023/10/19 03:59:56;;;;;;;15.53;4.60;;;;;;;16.20;72.20;95646.81;5041653;28;21379;-68
2023/10/19 04:02:23;;;;;;;10.67;4.70;;;;;;;16.20;72.28;95644.16;5032277;28;20542;-67
2023/10/19 04:04:49;;;;;;;10.10;4.47;;;;;;;16.19;72.33;95639.91;5031225;28;20507;-67
2023/10/19 04:07:21;;;;;;;7.87;4.40;;;;;;;16.21;72.33;95640.50;5043580;28;20510;-68
2023/10/19 04:12:38;;;;;;;6.67;4.40;;;;;;;16.25;72.47;95641.66;5033318;28;20430;-67
2023/10/19 04:15:13;;;;;;;5.87;4.37;;;;;;;16.24;72.47;95634.75;5035249;28;20437;-68
2023/10/19 04:17:40;;;;;;;9.30;5.07;;;;;;;16.24;72.24;95635.56;5022110;28;20510;-68
2023/10/19 04:20:54;;;;;;;4.97;4.47;;;;;;;16.25;72.30;95628.44;5027008;28;20442;-70
2023/10/19 04:22:57;;;;;;;6.07;4.37;;;;;;;16.25;72.26;95620.53;5034363;28;20434;-68
2023/10/19 04:25:26;;;;;;;6.03;4.03;;;;;;;16.26;72.43;95614.16;5037945;28;21115;-67
2023/10/19 04:27:51;;;;;;;9.10;4.40;;;;;;;16.26;72.40;95622.09;5040151;28;20428;-68
2023/10/19 04:30:24;;;;;;;6.17;4.40;;;;;;;16.26;72.47;95616.81;5037712;28;20463;-68
2023/10/19 04:32:50;;;;;;;9.17;4.23;;;;;;;16.26;72.50;95617.63;5041513;28;20191;-67
2023/10/19 04:35:22;;;;;;;5.07;4.20;;;;;;;16.29;72.60;95613.72;5036010;28;20420;-67
2023/10/19 04:37:52;;;;;;;7.33;4.10;;;;;;;16.31;72.55;95614.31;5027762;28;20802;-68
2023/10/19 04:40:21;;;;;;;4.57;4.07;;;;;;;16.33;72.53;95611.44;5038535;28;20947;-68
2023/10/19 04:42:47;;;;;;;7.60;4.13;;;;;;;16.33;72.43;95614.06;5038664;28;20426;-68
2023/10/19 04:45:13;;;;;;;6.30;4.40;;;;;;;16.32;72.34;95610.63;5040413;28;20990;-68
2023/10/19 04:47:39;;;;;;;6.93;4.20;;;;;;;16.35;72.29;95607.53;5034183;28;20418;-69
2023/10/19 04:50:05;;;;;;;9.23;4.40;;;;;;;16.35;72.33;95606.72;5029580;28;20520;-68
2023/10/19 04:52:31;;;;;;;6.77;4.00;;;;;;;16.36;72.49;95605.69;5028269;28;20179;-69
2023/10/19 04:54:57;;;;;;;5.07;4.20;;;;;;;16.37;72.37;95605.47;5039415;28;20542;-68
2023/10/19 04:57:22;;;;;;;11.67;4.80;;;;;;;16.37;72.17;95602.84;5030602;28;20576;-68
2023/10/19 04:59:48;;;;;;;6.63;4.70;;;;;;;16.35;71.98;95599.63;5027202;28;20446;-67
2023/10/19 05:02:13;;;;;;;6.10;4.23;;;;;;;16.27;71.54;95592.81;5027537;28;20714;-68
2023/10/19 05:04:40;;;;;;;6.47;4.73;;;;;;;16.19;71.48;95589.69;5032197;28;20179;-68
2023/10/19 05:07:06;;;;;;;5.43;4.17;;;;;;;16.13;71.53;95592.19;5021385;28;20190;-68
2023/10/19 05:09:32;;;;;;;5.73;4.27;;;;;;;16.12;71.52;95587.97;5038201;28;20454;-68
2023/10/19 05:11:57;;;;;;;5.13;4.63;;;;;;;16.10;71.56;95592.69;5045275;28;20186;-67
2023/10/19 05:14:23;;;;;;;4.47;4.07;;;;;;;16.10;71.63;95597.97;5034505;28;20183;-68
2023/10/19 05:16:49;;;;;;;5.60;4.90;;;;;;;16.13;71.78;95594.84;5032136;28;20183;-66
2023/10/19 05:19:14;;;;;;;6.10;4.70;;;;;;;16.12;71.77;95595.91;5035864;28;20362;-68
2023/10/19 05:21:40;;;;;;;6.53;4.50;;;;;;;16.12;71.88;95595.91;5043897;28;20488;-68
2023/10/19 05:24:06;;;;;;;16.43;4.60;;;;;;;16.13;72.00;95597.50;5043849;28;20275;-68
2023/10/19 05:26:33;;;;;;;5.23;4.17;;;;;;;16.17;72.27;95604.97;5031368;28;20207;-67
2023/10/19 05:28:58;;;;;;;6.40;4.60;;;;;;;16.20;72.35;95597.38;5029533;28;20450;-68
2023/10/19 05:31:24;;;;;;;6.67;4.80;;;;;;;16.22;72.25;95600.63;5033402;28;20836;-68
2023/10/19 05:33:50;;;;;;;8.30;4.60;;;;;;;16.23;72.15;95594.31;5043630;28;20190;-68
2023/10/19 05:36:16;;;;;;;6.00;4.50;;;;;;;16.25;72.28;95599.38;5035594;28;20584;-68
2023/10/19 05:38:43;;;;;;;7.40;4.13;;;;;;;16.26;72.21;95600.97;5031768;28;20176;-66
2023/10/19 05:41:10;;;;;;;5.60;4.80;;;;;;;16.26;72.19;95588.56;5032159;28;20881;-67
2023/10/19 05:43:36;;;;;;;5.07;4.37;;;;;;;16.28;72.15;95599.72;5039533;28;20441;-69
2023/10/19 05:46:01;;;;;;;8.10;5.60;;;;;;;16.28;71.82;95596.25;5036248;28;20419;-68
2023/10/19 05:48:27;;;;;;;10.70;7.50;;;;;;;16.19;71.30;95597.63;5027759;28;20860;-68
2023/10/19 05:50:52;;;;;;;14.97;7.80;;;;;;;16.16;71.34;95587.50;5047576;28;20794;-69
2023/10/19 05:53:18;;;;;;;11.13;10.07;;;;;;;16.10;70.86;95591.84;5035220;28;20825;-68
2023/10/19 05:55:47;;;;;;;16.33;13.03;;;;;;;16.06;70.89;95591.50;5038482;28;20186;-66
2023/10/19 05:58:12;;;;;;;16.23;8.93;;;;;;;15.97;70.70;95598.16;5033692;28;20195;-68
2023/10/19 06:00:38;;;;;;;7.50;6.70;;;;;;;15.90;70.58;95605.34;5045013;28;20442;-69
2023/10/19 06:03:04;;;;;;;12.37;5.70;;;;;;;15.85;70.80;95605.25;5034663;28;20621;-68
2023/10/19 06:05:30;;;;;;;7.63;5.40;;;;;;;15.81;70.76;95602.22;5038217;28;20509;-68
2023/10/19 06:07:56;;;;;;;6.33;5.73;;;;;;;15.81;70.56;95607.50;5031413;28;20253;-68
2023/10/19 06:10:22;;;;;;;6.43;5.40;;;;;;;15.77;70.71;95608.97;5031763;28;20462;-68
2023/10/19 06:12:51;;;;;;;7.17;5.33;;;;;;;15.76;70.95;95610.00;5042861;28;20245;-68
2023/10/19 06:15:18;;;;;;;8.00;5.50;;;;;;;15.77;70.99;95619.53;5041605;28;20718;-68
2023/10/19 06:17:45;;;;;;;8.00;5.30;;;;;;;15.82;71.11;95607.28;5036769;28;20430;-68
2023/10/19 06:20:19;;;;;;;6.17;5.10;;;;;;;15.85;71.29;95610.53;5038715;28;20448;-68
2023/10/19 06:22:51;;;;;;;8.00;4.97;;;;;;;15.88;71.55;95618.00;5022633;28;20787;-69
2023/10/19 06:25:21;;;;;;;6.50;5.90;;;;;;;15.89;71.78;95615.13;5033027;28;20430;-68
2023/10/19 06:27:47;;;;;;;6.40;5.80;;;;;;;15.90;71.81;95621.22;5036265;28;20878;-68
2023/10/19 06:30:18;;;;;;;7.03;5.00;;;;;;;15.94;71.91;95619.72;5030669;28;20481;-68
2023/10/19 06:32:48;;;;;;;6.90;5.50;;;;;;;15.95;71.93;95618.72;5025243;28;20938;-68
2023/10/19 06:35:13;;;;;;;7.67;5.40;;;;;;;15.99;71.99;95622.53;5031837;28;20480;-69
2023/10/19 06:37:40;;;;;;;11.63;5.50;;;;;;;16.01;72.10;95619.66;5040596;28;21082;-68
2023/10/19 06:40:06;;;;;;;8.70;5.77;;;;;;;16.03;72.06;95623.66;5031349;28;20683;-68
2023/10/19 06:42:31;;;;;;;9.67;5.90;;;;;;;16.06;72.20;95623.22;5035908;28;20462;-69
2023/10/19 06:44:57;;;;;;;10.63;5.43;;;;;;;16.10;72.18;95629.69;5030648;28;21016;-69
2023/10/19 06:47:23;;;;;;;9.27;7.10;;;;;;;16.11;72.13;95620.72;5031163;28;20188;-70
2023/10/19 06:49:50;;;;;;;13.17;7.20;;;;;;;16.10;72.09;95623.56;5038518;28;20368;-70
2023/10/19 06:52:18;;;;;;;9.80;7.27;;;;;;;16.15;72.09;95625.53;5030857;28;20298;-68
2023/10/19 06:54:43;;;;;;;21.10;10.20;;;;;;;16.13;72.11;95623.91;5026718;28;20471;-68
2023/10/19 06:57:09;;;;;;;15.80;10.90;;;;;;;16.16;72.16;95611.28;5031990;28;20469;-69
2023/10/19 06:59:36;;;;;;;15.07;10.33;;;;;;;16.18;72.00;95611.88;5034912;28;20207;-69
2023/10/19 07:02:02;;;;;;;16.23;11.20;;;;;;;16.19;72.06;95610.84;5028891;28;20180;-70
2023/10/19 07:04:29;;;;;;;18.07;10.07;;;;;;;16.20;71.99;95612.47;5043359;28;20769;-69
2023/10/19 07:06:54;;;;;;;11.83;8.03;;;;;;;16.22;72.03;95610.41;5025476;28;20192;-69
2023/10/19 07:09:21;;;;;;;12.97;7.27;;;;;;;16.25;71.95;95604.66;5021902;28;20476;-68
2023/10/19 07:11:46;;;;;;;8.17;6.37;;;;;;;16.26;72.08;95606.25;5027388;28;20199;-69
2023/10/19 07:14:12;;;;;;;11.10;6.60;;;;;;;16.29;72.10;95608.44;5038414;28;20426;-69
2023/10/19 07:16:42;;;;;;;11.50;6.30;;;;;;;16.32;72.14;95615.91;5031521;28;20228;-69
2023/10/19 07:19:09;;;;;;;8.33;6.70;;;;;;;16.33;72.16;95611.44;5039414;28;20431;-70
2023/10/19 07:21:36;;;;;;;6.53;5.83;;;;;;;16.34;72.11;95602.47;5034641;28;20433;-70
2023/10/19 07:24:05;;;;;;;7.77;6.10;;;;;;;16.36;72.08;95614.44;5038539;28;20434;-68
2023/10/19 07:26:33;;;;;;;7.17;5.70;;;;;;;16.40;72.29;95612.16;5031065;28;20485;-69
2023/10/19 07:28:59;;;;;;;9.30;6.80;;;;;;;16.46;72.30;95607.78;5035660;28;20975;-69
2023/10/19 07:31:27;;;;;;;7.90;6.83;;;;;;;16.51;72.29;95599.94;5029525;28;20488;-70
2023/10/19 07:33:55;;;;;;;11.57;6.77;;;;;;;16.55;72.41;95606.41;5040936;28;20422;-69
2023/10/19 07:36:20;;;;;;;14.80;7.93;;;;;;;16.61;72.48;95608.16;5030623;28;20491;-69
2023/10/19 07:38:47;;;;;;;9.43;6.23;;;;;;;16.67;72.45;95609.06;5031985;28;20434;-69
2023/10/19 07:41:13;;;;;;;10.50;7.30;;;;;;;16.72;72.60;95594.13;5028230;28;20188;-70
2023/10/19 07:43:39;;;;;;;7.70;6.70;;;;;;;16.82;72.51;95592.72;5031349;28;21198;-70
2023/10/19 07:46:04;;;;;;;14.00;6.90;;;;;;;16.91;72.48;95599.25;5028695;28;20184;-69
2023/10/19 07:48:29;;;;;;;17.63;6.97;;;;;;;16.99;72.47;95596.31;5038273;28;20544;-69
2023/10/19 07:50:55;;;;;;;13.03;6.90;;;;;;;17.07;72.34;95599.63;5036072;28;20216;-69
2023/10/19 07:53:21;;;;;;;6.80;5.40;;;;;;;17.16;72.44;95598.22;5029674;28;20704;-70
2023/10/19 07:55:47;;;;;;;8.87;6.80;;;;;;;17.25;72.40;95588.91;5025437;28;20185;-69
2023/10/19 07:58:12;;;;;;;10.07;6.77;;;;;;;17.34;72.29;95584.84;5028306;28;20684;-70
2023/10/19 08:00:38;;;;;;;9.33;7.00;;;;;;;17.41;72.19;95591.81;5029625;28;20188;-70
2023/10/19 08:03:04;;;;;;;11.40;6.13;;;;;;;17.48;72.28;95579.28;5038628;28;20183;-71
2023/10/19 08:05:30;;;;;;;7.03;5.70;;;;;;;17.56;72.29;95581.53;5030152;28;20422;-70
2023/10/19 08:07:58;;;;;;;8.20;5.23;;;;;;;17.65;72.06;95584.63;5029318;28;20506;-70
2023/10/19 08:10:25;;;;;;;9.63;5.60;;;;;;;17.74;71.97;95587.69;5028923;28;20212;-70
2023/10/19 08:12:51;;;;;;;8.67;5.50;;;;;;;17.84;71.88;95587.88;5035203;28;20422;-71
2023/10/19 08:15:18;;;;;;;6.37;5.60;;;;;;;17.91;71.55;95588.53;5038828;28;20432;-70
2023/10/19 08:17:49;;;;;;;5.57;4.60;;;;;;;18.10;71.48;95591.00;5031245;28;20512;-70
2023/10/19 08:20:16;;;;;;;8.10;5.60;;;;;;;18.29;70.85;95591.56;5040154;28;20934;-70
2023/10/19 08:22:47;;;;;;;8.67;5.10;;;;;;;18.54;70.56;95588.50;5027561;28;20426;-70
2023/10/19 08:25:14;;;;;;;6.87;5.20;;;;;;;18.77;69.52;95592.03;5029020;28;21079;-70
2023/10/19 08:27:49;;;;;;;7.67;5.40;;;;;;;18.91;68.59;95599.63;5022107;28;20422;-70
2023/10/19 08:30:17;;;;;;;14.17;5.90;;;;;;;19.01;67.90;95589.19;5034029;28;20465;-70
2023/10/19 08:32:45;;;;;;;10.30;5.30;;;;;;;19.21;67.25;95590.50;5029360;28;20972;-70
2023/10/19 08:35:14;;;;;;;5.73;4.63;;;;;;;19.38;66.30;95595.75;5027353;28;20481;-69
2023/10/19 08:37:39;;;;;;;5.30;4.73;;;;;;;19.51;65.49;95581.31;5035319;28;20935;-69
2023/10/19 08:40:14;;;;;;;9.60;5.50;;;;;;;19.55;64.60;95577.88;5029321;28;20433;-69
2023/10/19 08:42:45;;;;;;;7.70;5.03;;;;;;;19.72;64.13;95572.47;5035362;28;20178;-70
2023/10/19 08:45:14;;;;;;;5.17;4.67;;;;;;;19.88;64.51;95576.13;5036833;28;20418;-70
2023/10/19 08:47:59;;;;;;;7.83;4.20;;;;;;;20.14;64.11;95573.69;5028225;28;20422;-70
2023/10/19 08:50:26;;;;;;;8.83;4.73;;;;;;;20.36;63.64;95570.94;5025770;28;20469;-71
2023/10/19 08:52:53;;;;;;;6.03;4.80;;;;;;;20.60;62.78;95575.91;5034664;28;20560;-70
2023/10/19 08:55:19;;;;;;;8.07;4.73;;;;;;;20.80;61.79;95571.78;5037715;28;20537;-70
2023/10/19 08:57:48;;;;;;;8.57;5.20;;;;;;;21.00;61.56;95574.56;5036231;28;20963;-70
2023/10/19 09:00:17;;;;;;;6.93;4.77;;;;;;;21.15;60.33;95567.72;5020958;28;20943;-70
2023/10/19 09:02:43;;;;;;;7.53;4.90;;;;;;;21.13;59.69;95561.84;5036481;28;20452;-69
2023/10/19 09:05:08;;;;;;;6.10;4.10;;;;;;;21.26;59.81;95571.22;5036044;28;20927;-70
2023/10/19 09:07:34;;;;;;;8.53;4.50;;;;;;;21.40;59.26;95563.56;5036438;28;20187;-70
2023/10/19 09:10:01;;;;;;;7.57;4.80;;;;;;;21.46;58.31;95563.31;5034157;28;20269;-69
2023/10/19 09:12:26;;;;;;;6.07;3.93;;;;;;;21.39;58.56;95569.94;5027677;28;20195;-70
2023/10/19 09:14:52;;;;;;;6.07;4.33;;;;;;;21.44;58.14;95577.94;5036031;28;20421;-70
2023/10/19 09:17:29;;;;;;;6.33;3.37;;;;;;;21.38;57.70;95568.34;5027926;28;20671;-70
2023/10/19 09:19:56;;;;;;;5.30;3.50;;;;;;;21.43;58.01;95561.16;5030695;28;20198;-70
2023/10/19 09:22:24;;;;;;;5.40;4.37;;;;;;;21.42;57.76;95569.44;5029344;28;20422;-69
2023/10/19 09:24:53;;;;;;;4.10;3.43;;;;;;;21.42;57.48;95570.22;5043957;28;20440;-70
2023/10/19 09:27:21;;;;;;;6.20;4.20;;;;;;;21.47;57.59;95566.78;5033307;28;20522;-69
2023/10/19 09:29:47;;;;;;;8.07;4.73;;;;;;;21.52;57.69;95557.97;5027324;28;20996;-70
2023/10/19 09:32:13;;;;;;;9.00;4.60;;;;;;;21.65;58.50;95556.72;5029459;28;20422;-69
2023/10/19 09:34:43;;;;;;;6.37;4.80;;;;;;;21.83;58.55;95548.22;5031587;28;20429;-70
2023/10/19 09:37:09;;;;;;;4.50;4.00;;;;;;;22.14;57.26;95552.78;5032112;28;20188;-70
2023/10/19 09:39:35;;;;;;;4.70;3.43;;;;;;;22.34;56.12;95541.31;5029140;28;20450;-68
2023/10/19 09:42:05;;;;;;;7.07;4.10;;;;;;;22.50;55.82;95529.59;5033699;28;20422;-69
2023/10/19 09:44:48;;;;;;;4.43;3.40;;;;;;;22.62;55.94;95531.16;5021163;28;20290;-70
2023/10/19 09:47:27;;;;;;;5.13;3.40;;;;;;;22.46;55.76;95533.84;5020449;28;20984;-70
2023/10/19 09:49:53;;;;;;;7.20;4.70;;;;;;;22.21;55.15;95532.78;5024946;28;20462;-70
2023/10/19 09:52:19;;;;;;;5.23;4.60;;;;;;;22.08;56.02;95538.63;5027573;28;20456;-70
2023/10/19 09:54:54;;;;;;;6.60;4.00;;;;;;;21.98;57.37;95535.97;5035218;28;20605;-70
2023/10/19 09:57:30;;;;;;;10.30;4.83;;;;;;;21.85;57.05;95538.09;5028667;28;20421;-70
2023/10/19 10:00:07;;;;;;;5.27;4.77;;;;;;;21.68;57.19;95542.84;5028990;28;20533;-70
2023/10/19 10:02:34;;;;;;;6.53;4.33;;;;;;;21.50;57.67;95539.59;5041234;28;20540;-69
2023/10/19 10:04:59;;;;;;;5.67;4.40;;;;;;;21.38;58.17;95542.50;5025281;28;20429;-71
2023/10/19 10:07:25;;;;;;;9.77;5.30;;;;;;;21.28;58.19;95548.59;5039579;28;20864;-69
2023/10/19 10:09:50;;;;;;;8.50;5.90;;;;;;;21.20;58.88;95550.97;5038551;28;20219;-69
2023/10/19 10:12:24;;;;;;;8.17;5.60;;;;;;;21.06;59.22;95546.13;5031082;28;20191;-71
2023/10/19 10:15:10;;;;;;;9.03;5.80;;;;;;;20.98;60.14;95544.75;5037641;28;20594;-70
2023/10/19 10:17:37;;;;;;;8.37;7.30;;;;;;;20.91;59.86;95538.88;5030535;28;20525;-70
2023/10/19 10:20:11;;;;;;;8.40;7.47;;;;;;;20.81;60.64;95528.13;5026070;28;20464;-71
2023/10/19 10:22:37;;;;;;;7.13;6.43;;;;;;;20.86;61.00;95533.50;5034713;28;20426;-70
2023/10/19 10:25:02;;;;;;;11.10;6.80;;;;;;;20.89;61.16;95535.66;5048887;28;20428;-70
2023/10/19 10:27:30;;;;;;;11.60;7.57;;;;;;;20.84;61.03;95532.97;5027710;28;20552;-70
2023/10/19 10:30:01;;;;;;;11.80;8.73;;;;;;;20.61;61.50;95528.78;5030228;28;20220;-69
2023/10/19 10:32:59;;;;;;;12.10;8.93;;;;;;;20.53;61.70;95517.59;5037761;28;20487;-70
2023/10/19 10:35:36;;;;;;;17.03;8.40;;;;;;;20.40;62.33;95526.84;5033871;28;20465;-70
2023/10/19 10:38:05;;;;;;;13.03;8.90;;;;;;;20.49;62.58;95521.03;5033998;28;20499;-70
2023/10/19 10:40:31;;;;;;;9.73;8.60;;;;;;;20.44;62.51;95532.44;5044277;28;21013;-70
2023/10/19 10:43:07;;;;;;;10.33;9.23;;;;;;;20.32;63.08;95531.81;5031969;28;20480;-70
2023/10/19 10:45:32;;;;;;;14.87;8.30;;;;;;;20.21;63.77;95525.63;5030436;28;20426;-68
2023/10/19 10:48:00;;;;;;;9.13;8.10;;;;;;;20.14;64.29;95525.03;5032439;28;20430;-69
2023/10/19 10:50:28;;;;;;;13.50;8.27;;;;;;;20.25;64.07;95526.72;5033166;28;20215;-70
2023/10/19 10:52:57;;;;;;;10.53;8.70;;;;;;;20.26;64.35;95538.97;5030166;28;20422;-70
2023/10/19 10:55:23;;;;;;;13.87;8.20;;;;;;;20.33;64.13;95538.75;5036923;28;20426;-70
2023/10/19 10:57:49;;;;;;;11.40;7.83;;;;;;;20.36;64.04;95533.72;5042960;28;20433;-71
2023/10/19 11:00:15;;;;;;;8.93;7.80;;;;;;;20.32;64.75;95537.94;5032690;28;20438;-71
2023/10/19 11:02:49;;;;;;;8.50;5.03;;;;;;;20.34;64.78;95538.47;5038771;28;20183;-70
2023/10/19 11:05:16;;;;;;;3.50;3.20;;;;;;;20.34;64.14;95533.16;5034440;28;20506;-70
2023/10/19 11:08:09;;;;;;;5.00;3.20;;;;;;;20.37;64.06;95531.84;5028006;28;21009;-70
2023/10/19 11:10:35;;;;;;;4.43;2.27;;;;;;;20.38;63.76;95526.28;5025659;28;20497;-70
2023/10/19 11:13:08;;;;;;;4.27;2.17;;;;;;;20.36;63.81;95533.72;5041169;28;20431;-70
2023/10/19 11:15:35;;;;;;;3.57;2.43;;;;;;;20.34;63.40;95527.06;5037886;28;20928;-70
2023/10/19 11:18:01;;;;;;;4.50;2.30;;;;;;;20.30;63.21;95529.41;5032268;28;21004;-70
2023/10/19 11:20:27;;;;;;;4.20;2.23;;;;;;;20.32;63.05;95526.50;5038783;28;20988;-70
2023/10/19 11:22:55;;;;;;;4.10;2.50;;;;;;;20.27;63.29;95524.63;5031696;28;20440;-69
2023/10/19 11:25:28;;;;;;;7.10;2.60;;;;;;;20.23;63.02;95528.81;5043232;28;20180;-69
2023/10/19 11:27:58;;;;;;;3.73;2.50;;;;;;;20.24;63.22;95522.47;5036530;28;20434;-69
2023/10/19 11:30:28;;;;;;;2.80;2.13;;;;;;;20.19;63.36;95527.72;5041593;28;20502;-68
2023/10/19 11:32:57;;;;;;;2.90;2.20;;;;;;;20.16;63.31;95525.59;5033093;28;20426;-70
2023/10/19 11:35:30;;;;;;;4.70;2.20;;;;;;;20.14;63.99;95527.69;5038686;28;20505;-69
2023/10/19 11:37:58;;;;;;;4.13;2.30;;;;;;;20.15;64.08;95516.00;5041130;28;20422;-70
2023/10/19 11:40:25;;;;;;;4.43;2.70;;;;;;;20.15;64.20;95521.34;5041684;28;20476;-69
2023/10/19 11:42:50;;;;;;;5.70;2.83;;;;;;;20.07;64.48;95520.72;5033725;28;20514;-68
2023/10/19 11:45:17;;;;;;;8.33;3.63;;;;;;;20.07;64.76;95520.72;5034060;28;21040;-69
2023/10/19 11:47:44;;;;;;;4.90;3.47;;;;;;;20.06;64.85;95519.13;5033342;28;20214;-69
2023/10/19 11:50:12;;;;;;;7.73;4.23;;;;;;;20.06;65.43;95507.69;5033898;28;20546;-70
2023/10/19 11:52:37;;;;;;;3.70;3.40;;;;;;;20.06;66.01;95497.06;5034189;28;20768;-71
2023/10/19 11:55:05;;;;;;;5.00;4.00;;;;;;;20.05;65.92;95485.63;5037796;28;20460;-70
2023/10/19 11:57:32;;;;;;;4.30;3.33;;;;;;;20.06;66.76;95486.44;5031831;28;20180;-70
2023/10/19 11:59:59;;;;;;;3.90;3.13;;;;;;;20.03;67.19;95482.44;5036361;28;20973;-70
2023/10/19 12:02:24;;;;;;;8.20;3.40;;;;;;;20.01;67.76;95473.91;5037704;28;20476;-71